createdAt,value
2023-05-09T00:00:48.076Z,94860.97
2023-05-09T00:03:14.941Z,94868.53
2023-05-09T00:05:42.108Z,94838.00
2023-05-09T00:08:09.068Z,94855.13
2023-05-09T00:10:36.007Z,94863.34
2023-05-09T00:13:03.074Z,94853.13
2023-05-09T00:15:30.649Z,94847.19
2023-05-09T00:17:57.651Z,94855.84
2023-05-09T00:20:24.551Z,94853.41
2023-05-09T00:22:51.422Z,94837.00
2023-05-09T00:25:18.271Z,94842.28
2023-05-09T00:27:45.108Z,94835.44
2023-05-09T00:30:12.169Z,94844.94
2023-05-09T00:32:40.469Z,94820.31
2023-05-09T00:35:09.210Z,94838.09
2023-05-09T00:37:36.128Z,94832.16
2023-05-09T00:40:05.844Z,94839.72
2023-05-09T00:42:32.686Z,94826.44
2023-05-09T00:45:00.562Z,94808.84
2023-05-09T00:47:28.839Z,94811.22
2023-05-09T00:49:58.321Z,94828.59
2023-05-09T00:52:26.335Z,94822.06
2023-05-09T00:54:55.039Z,94826.78
2023-05-09T00:57:22.957Z,94822.88
2023-05-09T00:59:50.398Z,94827.63
2023-05-09T01:02:20.782Z,94820.38
2023-05-09T01:04:48.004Z,94829.03
2023-05-09T01:07:39.427Z,94832.09
2023-05-09T01:10:42.414Z,94832.41
2023-05-09T01:13:15.055Z,94835.47
2023-05-09T01:16:01.858Z,94810.97
2023-05-09T01:18:43.360Z,94821.28
2023-05-09T01:21:29.473Z,94818.09
2023-05-09T01:24:16.578Z,94814.91
2023-05-09T01:27:04.811Z,94806.34
2023-05-09T01:29:46.576Z,94805.84
2023-05-09T01:32:28.776Z,94815.38
2023-05-09T01:35:01.956Z,94802.97
2023-05-09T01:37:33.492Z,94812.81
2023-05-09T01:40:08.521Z,94813.28
2023-05-09T01:42:50.307Z,94805.06
2023-05-09T01:45:18.534Z,94794.94
2023-05-09T01:47:45.465Z,94794.31
2023-05-09T01:50:13.417Z,94798.16
2023-05-09T01:52:43.551Z,94800.13
2023-05-09T01:55:11.793Z,94802.25
2023-05-09T01:57:39.997Z,94802.25
2023-05-09T02:00:08.352Z,94813.91
2023-05-09T02:02:36.353Z,94816.91
2023-05-09T02:05:03.587Z,94806.88
2023-05-09T02:07:31.689Z,94800.75
2023-05-09T02:09:59.411Z,94809.97
2023-05-09T02:12:26.760Z,94806.03
2023-05-09T02:14:53.620Z,94812.16
2023-05-09T02:17:21.784Z,94810.69
2023-05-09T02:19:48.663Z,94808.50
2023-05-09T02:22:15.952Z,94797.78
2023-05-09T02:24:45.459Z,94808.00
2023-05-09T02:27:13.972Z,94813.06
2023-05-09T02:29:51.403Z,94800.31
2023-05-09T02:32:25.989Z,94810.97
2023-05-09T02:34:53.791Z,94807.31
2023-05-09T02:37:21.949Z,94795.78
2023-05-09T02:39:48.879Z,94778.00
2023-05-09T02:42:22.954Z,94796.41
2023-05-09T02:44:49.848Z,94781.47
2023-05-09T02:47:16.673Z,94772.56
2023-05-09T02:49:43.531Z,94762.50
2023-05-09T02:52:11.290Z,94760.88
2023-05-09T02:54:39.040Z,94750.66
2023-05-09T02:57:06.138Z,94761.63
2023-05-09T02:59:33.362Z,94760.25
2023-05-09T03:02:00.274Z,94745.31
2023-05-09T03:04:27.544Z,94761.44
2023-05-09T03:06:54.545Z,94720.22
2023-05-09T03:09:21.438Z,94744.28
2023-05-09T03:11:48.265Z,94742.91
2023-05-09T03:14:15.628Z,94735.81
2023-05-09T03:16:42.536Z,94756.84
2023-05-09T03:19:09.384Z,94756.03
2023-05-09T03:21:36.527Z,94759.41
2023-05-09T03:24:04.922Z,94742.63
2023-05-09T03:26:31.800Z,94725.06
2023-05-09T03:28:59.162Z,94746.09
2023-05-09T03:31:26.100Z,94741.44
2023-05-09T03:33:53.244Z,94746.72
2023-05-09T03:36:20.431Z,94749.00
2023-05-09T03:38:47.322Z,94737.72
2023-05-09T03:41:17.871Z,94734.06
2023-05-09T03:43:45.238Z,94736.53
2023-05-09T03:46:12.123Z,94731.00
2023-05-09T03:48:38.992Z,94743.47
2023-05-09T03:51:06.423Z,94745.00
2023-05-09T03:53:33.335Z,94730.16
2023-05-09T03:56:00.210Z,94721.22
2023-05-09T03:58:27.117Z,94733.88
2023-05-09T04:00:54.094Z,94732.22
2023-05-09T04:03:21.112Z,94720.13
2023-05-09T04:05:48.047Z,94723.66
2023-05-09T04:08:14.910Z,94724.22
2023-05-09T04:10:41.835Z,94741.16
2023-05-09T04:13:08.761Z,94725.84
2023-05-09T04:15:35.689Z,94728.31
2023-05-09T04:18:02.788Z,94743.09
2023-05-09T04:20:29.644Z,94740.63
2023-05-09T04:22:56.503Z,94733.50
2023-05-09T04:25:23.737Z,94743.44
2023-05-09T04:27:50.681Z,94741.03
2023-05-09T04:30:17.692Z,94733.03
2023-05-09T04:32:49.132Z,94730.84
2023-05-09T04:35:18.001Z,94723.13
2023-05-09T04:37:46.613Z,94743.16
2023-05-09T04:40:13.750Z,94744.50
2023-05-09T04:42:41.539Z,94748.44
2023-05-09T04:45:09.574Z,94734.31
2023-05-09T04:47:36.829Z,94743.44
2023-05-09T04:50:04.302Z,94738.22
2023-05-09T04:52:31.166Z,94745.97
2023-05-09T04:54:58.027Z,94734.84
2023-05-09T04:57:24.912Z,94739.25
2023-05-09T04:59:53.148Z,94722.78
2023-05-09T05:02:21.540Z,94721.75
2023-05-09T05:04:48.573Z,94731.50
2023-05-09T05:07:15.451Z,94730.22
2023-05-09T05:09:42.390Z,94735.66
2023-05-09T05:12:09.762Z,94726.53
2023-05-09T05:14:36.884Z,94728.53
2023-05-09T05:17:03.744Z,94740.47
2023-05-09T05:19:30.704Z,94741.91
2023-05-09T05:21:57.583Z,94736.94
2023-05-09T05:24:24.469Z,94740.22
2023-05-09T05:26:51.306Z,94742.22
2023-05-09T05:29:18.269Z,94740.94
2023-05-09T05:31:45.152Z,94745.69
2023-05-09T05:34:12.041Z,94723.25
2023-05-09T05:36:38.872Z,94736.38
2023-05-09T05:39:05.707Z,94736.13
2023-05-09T05:41:32.578Z,94729.50
2023-05-09T05:43:59.388Z,94725.66
2023-05-09T05:46:26.264Z,94728.31
2023-05-09T05:48:53.152Z,94731.66
2023-05-09T05:51:19.979Z,94730.69
2023-05-09T05:53:46.822Z,94728.22
2023-05-09T05:56:13.647Z,94733.31
2023-05-09T05:58:40.510Z,94732.31
2023-05-09T06:01:07.637Z,94708.34
2023-05-09T06:03:34.595Z,94725.34
2023-05-09T06:06:01.610Z,94708.13
2023-05-09T06:08:28.451Z,94718.59
2023-05-09T06:10:55.483Z,94724.44
2023-05-09T06:13:22.515Z,94720.91
2023-05-09T06:15:49.534Z,94713.44
2023-05-09T06:18:16.418Z,94710.88
2023-05-09T06:20:43.241Z,94713.09
2023-05-09T06:23:10.131Z,94695.94
2023-05-09T06:25:36.969Z,94711.53
2023-05-09T06:28:04.245Z,94696.50
2023-05-09T06:30:31.066Z,94699.69
2023-05-09T06:32:58.583Z,94687.13
2023-05-09T06:35:25.548Z,94690.19
2023-05-09T06:37:52.461Z,94700.16
2023-05-09T06:40:19.641Z,94696.88
2023-05-09T06:42:46.604Z,94702.50
2023-05-09T06:45:13.773Z,94689.66
2023-05-09T06:47:40.898Z,94706.88
2023-05-09T06:50:08.865Z,94704.41
2023-05-09T06:52:36.134Z,94701.78
2023-05-09T06:55:04.029Z,94699.09
2023-05-09T06:57:31.028Z,94685.00
2023-05-09T06:59:57.902Z,94680.97
2023-05-09T07:02:27.796Z,94648.94
2023-05-09T07:04:54.733Z,94687.28
2023-05-09T07:07:22.932Z,94680.63
2023-05-09T07:09:52.917Z,94665.16
2023-05-09T07:12:22.219Z,94670.22
2023-05-09T07:14:49.080Z,94653.19
2023-05-09T07:17:23.252Z,94662.88
2023-05-09T07:19:51.816Z,94644.50
2023-05-09T07:22:18.803Z,94654.94
2023-05-09T07:24:46.688Z,94660.47
2023-05-09T07:27:13.740Z,94657.31
2023-05-09T07:29:40.637Z,94650.44
2023-05-09T07:32:07.557Z,94615.81
2023-05-09T07:34:34.671Z,94633.03
2023-05-09T07:37:01.593Z,94623.25
2023-05-09T07:39:28.452Z,94629.72
2023-05-09T07:41:55.274Z,94624.75
2023-05-09T07:44:22.537Z,94619.91
2023-05-09T07:46:49.377Z,94617.50
2023-05-09T07:49:16.332Z,94623.63
2023-05-09T07:51:43.226Z,94614.69
2023-05-09T07:54:10.366Z,94620.47
2023-05-09T07:56:37.214Z,94620.09
2023-05-09T07:59:04.105Z,94610.34
2023-05-09T08:01:31.108Z,94607.34
2023-05-09T08:03:58.110Z,94614.13
2023-05-09T08:06:26.424Z,94609.44
2023-05-09T08:08:53.252Z,94599.44
2023-05-09T08:11:20.324Z,94589.25
2023-05-09T08:13:48.337Z,94585.22
2023-05-09T08:16:17.618Z,94578.00
2023-05-09T08:18:45.140Z,94580.72
2023-05-09T08:21:12.218Z,94579.72
2023-05-09T08:23:39.145Z,94573.41
2023-05-09T08:26:06.157Z,94574.22
2023-05-09T08:28:33.087Z,94568.28
2023-05-09T08:30:59.945Z,94570.13
2023-05-09T08:33:26.821Z,94566.47
2023-05-09T08:35:54.311Z,94575.44
2023-05-09T08:38:21.312Z,94571.34
2023-05-09T08:40:48.539Z,94557.47
2023-05-09T08:43:19.572Z,94570.75
2023-05-09T08:45:51.910Z,94567.47
2023-05-09T08:48:19.550Z,94573.81
2023-05-09T08:50:46.531Z,94575.88
2023-05-09T08:53:14.019Z,94576.63
2023-05-09T08:55:41.050Z,94570.09
2023-05-09T08:58:09.656Z,94579.47
2023-05-09T09:00:38.986Z,94559.09
2023-05-09T09:03:07.748Z,94561.19
2023-05-09T09:05:42.406Z,94544.44
2023-05-09T09:08:11.122Z,94554.03
2023-05-09T09:10:47.627Z,94552.19
2023-05-09T09:13:15.739Z,94551.34
2023-05-09T09:15:46.618Z,94545.44
2023-05-09T09:18:24.750Z,94552.16
2023-05-09T09:20:58.261Z,94539.84
2023-05-09T09:23:26.774Z,94534.91
2023-05-09T09:26:06.354Z,94533.28
2023-05-09T09:28:34.332Z,94525.09
2023-05-09T09:31:02.122Z,94518.13
2023-05-09T09:33:29.943Z,94516.38
2023-05-09T09:35:57.697Z,94511.63
2023-05-09T09:38:25.459Z,94508.44
2023-05-09T09:40:52.235Z,94491.75
2023-05-09T09:43:19.765Z,94488.06
2023-05-09T09:45:53.586Z,94464.63
2023-05-09T09:48:26.201Z,94475.84
2023-05-09T09:50:57.175Z,94473.69
2023-05-09T09:53:27.119Z,94485.94
2023-05-09T09:55:54.140Z,94471.25
2023-05-09T09:58:25.364Z,94456.53
2023-05-09T10:01:08.855Z,94470.44
2023-05-09T10:03:38.942Z,94469.06
2023-05-09T10:06:10.626Z,94463.78
2023-05-09T10:08:37.617Z,94455.25
2023-05-09T10:11:04.683Z,94458.75
2023-05-09T10:13:35.555Z,94450.00
2023-05-09T10:16:05.041Z,94436.91
2023-05-09T10:18:32.394Z,94444.75
2023-05-09T10:21:02.230Z,94443.59
2023-05-09T10:23:32.062Z,94440.84
2023-05-09T10:26:16.946Z,94439.84
2023-05-09T10:28:46.968Z,94416.09
2023-05-09T10:31:26.586Z,94420.38
2023-05-09T10:33:56.051Z,94419.31
2023-05-09T10:36:26.944Z,94419.44
2023-05-09T10:38:55.644Z,94407.16
2023-05-09T10:41:23.964Z,94414.53
2023-05-09T10:43:51.513Z,94409.91
2023-05-09T10:46:18.753Z,94398.56
2023-05-09T10:48:48.272Z,94390.19
2023-05-09T10:51:16.549Z,94390.25
2023-05-09T10:53:51.295Z,94389.28
2023-05-09T10:56:33.164Z,94385.44
2023-05-09T10:59:01.087Z,94389.72
2023-05-09T11:01:39.706Z,94364.88
2023-05-09T11:04:15.193Z,94367.69
2023-05-09T11:06:42.223Z,94359.56
2023-05-09T11:09:35.734Z,94354.44
2023-05-09T11:12:11.770Z,94351.06
2023-05-09T11:14:47.980Z,94340.34
2023-05-09T11:17:23.523Z,94343.56
2023-05-09T11:19:50.588Z,94348.03
2023-05-09T11:22:28.241Z,94339.44
2023-05-09T11:25:15.307Z,94335.50
2023-05-09T11:27:48.914Z,94329.56
2023-05-09T11:30:18.754Z,94336.56
2023-05-09T11:32:55.349Z,94323.25
2023-05-09T11:35:23.938Z,94325.25
2023-05-09T11:38:06.558Z,94317.69
2023-05-09T11:40:34.944Z,94312.34
2023-05-09T11:43:02.272Z,94302.88
2023-05-09T11:45:32.530Z,94307.84
2023-05-09T11:48:01.431Z,94308.06
2023-05-09T11:50:29.565Z,94304.22
2023-05-09T11:52:56.453Z,94274.53
2023-05-09T11:55:23.491Z,94280.59
2023-05-09T11:57:53.002Z,94289.59
2023-05-09T12:00:25.428Z,94274.00
2023-05-09T12:02:54.056Z,94278.75
2023-05-09T12:05:23.367Z,94279.34
2023-05-09T12:07:51.048Z,94267.72
2023-05-09T12:10:23.398Z,94261.44
2023-05-09T12:12:53.310Z,94248.03
2023-05-09T12:15:21.823Z,94255.97
2023-05-09T12:18:03.820Z,94254.25
2023-05-09T12:20:53.036Z,94259.13
2023-05-09T12:23:20.312Z,94252.09
2023-05-09T12:25:55.849Z,94251.72
2023-05-09T12:28:26.701Z,94239.00
2023-05-09T12:30:54.720Z,94243.19
2023-05-09T12:33:22.567Z,94215.72
2023-05-09T12:36:06.628Z,94238.38
2023-05-09T12:38:33.914Z,94220.63
2023-05-09T12:41:15.392Z,94210.94
2023-05-09T12:43:56.337Z,94197.56
2023-05-09T12:46:23.411Z,94201.50
2023-05-09T12:48:50.433Z,94197.69
2023-05-09T12:51:21.901Z,94200.53
2023-05-09T12:53:49.122Z,94199.94
2023-05-09T12:56:21.079Z,94188.03
2023-05-09T12:58:55.514Z,94193.75
2023-05-09T13:01:27.818Z,94187.47
2023-05-09T13:04:04.415Z,94184.84
2023-05-09T13:06:31.502Z,94184.38
2023-05-09T13:09:06.050Z,94181.50
2023-05-09T13:11:33.092Z,94178.81
2023-05-09T13:14:00.230Z,94178.69
2023-05-09T13:16:27.246Z,94161.16
2023-05-09T13:18:54.125Z,94166.88
2023-05-09T13:21:21.219Z,94165.13
2023-05-09T13:23:50.240Z,94166.47
2023-05-09T13:26:17.429Z,94148.03
2023-05-09T13:28:44.358Z,94145.25
2023-05-09T13:31:11.511Z,94154.09
2023-05-09T13:33:38.688Z,94145.06
2023-05-09T13:36:06.814Z,94135.44
2023-05-09T13:38:37.280Z,94118.50
2023-05-09T13:41:04.186Z,94134.50
2023-05-09T13:43:31.028Z,94116.13
2023-05-09T13:45:57.928Z,94132.88
2023-05-09T13:48:24.812Z,94111.25
2023-05-09T13:50:51.995Z,94104.88
2023-05-09T13:53:18.905Z,94111.00
2023-05-09T13:55:46.542Z,94101.75
2023-05-09T13:58:13.419Z,94116.25
2023-05-09T14:00:40.338Z,94101.00
2023-05-09T14:03:07.234Z,94101.06
2023-05-09T14:05:34.660Z,94084.50
2023-05-09T14:08:01.920Z,94098.00
2023-05-09T14:10:29.206Z,94092.63
2023-05-09T14:12:56.625Z,94090.84
2023-05-09T14:15:23.558Z,94084.84
2023-05-09T14:17:50.636Z,94081.38
2023-05-09T14:20:17.675Z,94079.97
2023-05-09T14:22:44.571Z,94057.94
2023-05-09T14:25:11.392Z,94071.69
2023-05-09T14:27:38.306Z,94070.41
2023-05-09T14:30:05.780Z,94072.16
2023-05-09T14:32:32.994Z,94048.03
2023-05-09T14:34:59.927Z,94068.50
2023-05-09T14:37:26.849Z,94061.66
2023-05-09T14:39:53.718Z,94053.28
2023-05-09T14:42:21.647Z,94047.63
2023-05-09T14:44:48.592Z,94053.09
2023-05-09T14:47:17.108Z,94038.44
2023-05-09T14:49:44.432Z,94038.03
2023-05-09T14:52:11.308Z,94027.22
2023-05-09T14:54:38.173Z,94046.63
2023-05-09T14:57:07.156Z,94030.66
2023-05-09T14:59:36.695Z,94028.81
2023-05-09T15:02:04.036Z,94039.34
2023-05-09T15:04:31.419Z,94022.63
2023-05-09T15:06:59.248Z,94028.03
2023-05-09T15:09:26.950Z,94025.19
2023-05-09T15:11:55.080Z,94021.72
2023-05-09T15:14:22.215Z,94030.56
2023-05-09T15:16:49.107Z,94010.38
2023-05-09T15:19:15.976Z,94019.94
2023-05-09T15:21:42.844Z,94021.38
2023-05-09T15:24:09.806Z,94014.44
2023-05-09T15:26:36.646Z,94009.94
2023-05-09T15:29:03.512Z,94011.88
2023-05-09T15:31:36.512Z,94016.56
2023-05-09T15:34:03.672Z,94012.97
2023-05-09T15:36:31.252Z,93989.00
2023-05-09T15:38:58.195Z,94007.28
2023-05-09T15:41:25.228Z,93995.75
2023-05-09T15:43:52.837Z,93989.03
2023-05-09T15:46:23.468Z,93999.91
2023-05-09T15:48:53.444Z,94000.63
2023-05-09T15:51:22.405Z,93991.94
2023-05-09T15:53:50.123Z,93986.38
2023-05-09T15:56:17.027Z,93993.94
2023-05-09T15:58:43.928Z,93992.22
2023-05-09T16:01:13.225Z,93982.38
2023-05-09T16:03:40.580Z,93998.94
2023-05-09T16:06:08.013Z,93982.41
2023-05-09T16:08:34.865Z,93996.13
2023-05-09T16:11:02.183Z,93996.06
2023-05-09T16:13:30.164Z,93978.09
2023-05-09T16:15:57.301Z,93996.00
2023-05-09T16:18:26.575Z,93991.81
2023-05-09T16:20:56.017Z,93986.47
2023-05-09T16:23:26.659Z,93988.59
2023-05-09T16:25:53.718Z,93990.22
2023-05-09T16:28:23.682Z,93978.16
2023-05-09T16:30:51.671Z,93967.66
2023-05-09T16:33:18.741Z,93993.69
2023-05-09T16:35:45.712Z,93989.75
2023-05-09T16:38:13.497Z,93988.63
2023-05-09T16:40:40.414Z,93987.19
2023-05-09T16:43:07.524Z,93977.81
2023-05-09T16:45:34.456Z,93994.88
2023-05-09T16:48:02.472Z,93981.75
2023-05-09T16:50:29.611Z,93948.06
2023-05-09T16:52:56.463Z,93978.88
2023-05-09T16:55:23.339Z,93976.88
2023-05-09T16:57:50.251Z,93964.97
2023-05-09T17:00:18.352Z,93995.84
2023-05-09T17:02:45.320Z,93963.28
2023-05-09T17:05:12.215Z,93983.66
2023-05-09T17:07:39.333Z,94000.66
2023-05-09T17:10:06.982Z,94018.16
2023-05-09T17:12:34.316Z,94011.28
2023-05-09T17:15:01.379Z,94014.44
2023-05-09T17:17:28.284Z,94024.66
2023-05-09T17:19:55.174Z,94013.09
2023-05-09T17:22:22.194Z,94005.47
2023-05-09T17:24:49.418Z,94016.72
2023-05-09T17:27:16.263Z,94009.66
2023-05-09T17:29:43.098Z,94021.91
2023-05-09T17:32:10.308Z,94031.97
2023-05-09T17:34:38.166Z,94023.03
2023-05-09T17:37:06.220Z,94026.19
2023-05-09T17:39:33.294Z,94004.94
2023-05-09T17:42:01.511Z,94023.22
2023-05-09T17:44:28.360Z,94026.53
2023-05-09T17:46:55.536Z,94011.81
2023-05-09T17:49:22.692Z,94010.88
2023-05-09T17:51:49.685Z,94014.91
2023-05-09T17:54:19.132Z,94012.19
2023-05-09T17:56:47.602Z,94022.38
2023-05-09T17:59:14.429Z,94010.44
2023-05-09T18:01:41.448Z,94014.28
2023-05-09T18:04:08.356Z,94017.94
2023-05-09T18:06:36.769Z,94004.97
2023-05-09T18:09:04.775Z,93977.09
2023-05-09T18:11:31.661Z,93998.88
2023-05-09T18:13:58.512Z,94001.00
2023-05-09T18:16:25.451Z,93994.94
2023-05-09T18:18:52.309Z,93995.41
2023-05-09T18:21:19.193Z,94007.72
2023-05-09T18:23:46.055Z,94005.16
2023-05-09T18:26:12.902Z,94015.00
2023-05-09T18:28:40.001Z,94012.81
2023-05-09T18:31:12.446Z,94018.72
2023-05-09T18:33:39.834Z,94010.72
2023-05-09T18:36:11.594Z,94018.09
2023-05-09T18:38:39.982Z,94018.09
2023-05-09T18:41:08.793Z,94014.41
2023-05-09T18:43:38.853Z,94017.78
2023-05-09T18:46:06.003Z,94025.16
2023-05-09T18:48:33.649Z,94017.41
2023-05-09T18:51:00.631Z,94020.28
2023-05-09T18:53:28.996Z,94026.91
2023-05-09T18:55:57.009Z,94016.19
2023-05-09T18:58:24.876Z,94021.31
2023-05-09T19:00:53.147Z,94035.72
2023-05-09T19:03:21.017Z,94030.09
2023-05-09T19:05:47.912Z,94021.09
2023-05-09T19:08:15.025Z,94034.97
2023-05-09T19:10:42.618Z,94041.72
2023-05-09T19:13:09.822Z,94039.53
2023-05-09T19:15:36.830Z,94025.88
2023-05-09T19:18:04.045Z,94019.84
2023-05-09T19:20:31.644Z,94034.09
2023-05-09T19:22:59.027Z,94027.81
2023-05-09T19:25:26.533Z,94029.91
2023-05-09T19:27:53.666Z,94032.56
2023-05-09T19:30:21.036Z,94050.25
2023-05-09T19:32:48.049Z,94048.66
2023-05-09T19:35:14.938Z,94039.06
2023-05-09T19:37:41.823Z,94041.72
2023-05-09T19:40:09.170Z,94036.25
2023-05-09T19:42:36.592Z,94044.56
2023-05-09T19:45:04.735Z,94045.63
2023-05-09T19:47:31.806Z,94031.59
2023-05-09T19:49:59.110Z,94038.72
2023-05-09T19:52:26.011Z,94025.34
2023-05-09T19:54:52.845Z,94032.88
2023-05-09T19:57:20.763Z,94037.81
2023-05-09T19:59:47.594Z,94034.81
2023-05-09T20:02:14.651Z,94025.44
2023-05-09T20:04:46.708Z,94034.81
2023-05-09T20:07:13.613Z,94014.31
2023-05-09T20:09:40.474Z,94024.91
2023-05-09T20:12:07.662Z,94033.22
2023-05-09T20:14:34.578Z,94040.94
2023-05-09T20:17:01.613Z,94047.06
2023-05-09T20:19:28.495Z,94034.50
2023-05-09T20:21:55.337Z,94036.91
2023-05-09T20:24:22.263Z,94046.03
2023-05-09T20:26:49.174Z,94025.94
2023-05-09T20:29:16.064Z,94023.09
2023-05-09T20:31:43.296Z,94029.22
2023-05-09T20:34:16.200Z,94037.13
2023-05-09T20:36:43.435Z,94036.94
2023-05-09T20:39:11.811Z,94031.25
2023-05-09T20:41:38.876Z,94027.16
2023-05-09T20:44:05.746Z,94026.19
2023-05-09T20:46:33.084Z,94034.28
2023-05-09T20:49:00.042Z,94035.09
2023-05-09T20:51:27.051Z,94018.66
2023-05-09T20:53:53.895Z,94033.09
2023-05-09T20:56:21.710Z,94019.00
2023-05-09T20:58:48.562Z,94021.47
2023-05-09T21:01:15.580Z,94032.47
2023-05-09T21:03:42.554Z,94022.09
2023-05-09T21:06:09.461Z,94024.31
2023-05-09T21:08:36.362Z,94031.25
2023-05-09T21:11:03.192Z,94032.09
2023-05-09T21:13:30.039Z,94030.50
2023-05-09T21:15:57.731Z,94039.03
2023-05-09T21:18:25.118Z,94036.59
2023-05-09T21:20:52.016Z,94013.00
2023-05-09T21:23:18.958Z,93999.56
2023-05-09T21:25:45.813Z,94016.44
2023-05-09T21:28:14.615Z,94033.09
2023-05-09T21:30:41.536Z,93997.91
2023-05-09T21:33:08.494Z,94019.66
2023-05-09T21:35:35.494Z,94022.50
2023-05-09T21:38:02.531Z,93991.84
2023-05-09T21:40:29.371Z,94010.56
2023-05-09T21:42:56.223Z,94012.19
2023-05-09T21:45:23.346Z,94013.41
2023-05-09T21:47:50.285Z,94006.91
2023-05-09T21:50:17.502Z,94013.41
2023-05-09T21:52:44.737Z,94009.91
2023-05-09T21:55:12.569Z,94021.31
2023-05-09T21:57:39.428Z,94012.78
2023-05-09T22:00:08.510Z,94020.31
2023-05-09T22:02:35.654Z,94008.53
2023-05-09T22:05:02.594Z,94005.91
2023-05-09T22:07:29.513Z,93998.56
2023-05-09T22:09:56.359Z,94008.34
2023-05-09T22:12:23.265Z,93994.31
2023-05-09T22:14:56.178Z,94018.13
2023-05-09T22:17:24.694Z,93996.38
2023-05-09T22:19:52.180Z,94003.69
2023-05-09T22:22:19.327Z,93986.63
2023-05-09T22:24:46.241Z,94007.75
2023-05-09T22:27:13.444Z,94001.25
2023-05-09T22:29:53.967Z,94005.31
2023-05-09T22:32:20.840Z,94021.78
2023-05-09T22:34:48.413Z,93995.19
2023-05-09T22:37:15.382Z,94001.69
2023-05-09T22:39:42.285Z,93993.53
2023-05-09T22:42:09.949Z,93985.44
2023-05-09T22:44:37.002Z,93991.94
2023-05-09T22:47:03.944Z,94015.50
2023-05-09T22:49:30.834Z,94011.88
2023-05-09T22:51:57.773Z,94011.47
2023-05-09T22:54:24.637Z,94000.47
2023-05-09T22:56:51.482Z,94021.41
2023-05-09T22:59:18.386Z,94009.81
2023-05-09T23:01:45.348Z,94008.22
2023-05-09T23:04:12.224Z,94010.63
2023-05-09T23:06:39.128Z,94000.50
2023-05-09T23:09:06.049Z,94006.97
2023-05-09T23:11:32.898Z,94012.88
2023-05-09T23:13:59.988Z,94014.72
2023-05-09T23:16:26.873Z,94009.25
2023-05-09T23:18:54.024Z,94018.78
2023-05-09T23:21:20.957Z,94004.56
2023-05-09T23:23:47.816Z,94013.91
2023-05-09T23:26:14.788Z,94001.72
2023-05-09T23:28:41.638Z,94015.53
2023-05-09T23:31:08.540Z,94003.34
2023-05-09T23:33:35.632Z,94015.75
2023-05-09T23:36:03.674Z,94003.94
2023-05-09T23:38:30.731Z,94001.31
2023-05-09T23:40:58.624Z,94009.47
2023-05-09T23:43:25.658Z,94006.81
2023-05-09T23:45:53.030Z,93984.28
2023-05-09T23:48:19.896Z,93998.88
2023-05-09T23:50:46.768Z,93994.44
2023-05-09T23:53:13.752Z,93990.53
2023-05-09T23:55:40.627Z,93996.25
2023-05-09T23:58:07.483Z,93981.41
